EmailTwitter


Observations de surface / Royaume-Uni / EGLL (03772)

Régions: Québec | Canada | États-Unis | Europe | France | UK | Ailleurs
Station
Affichage
Infos & localisation pour EGLL (03772) | Aide pour décoder les METARs

Observations prises le 2019-09-20 à 01H20 UTC à LONDON/HEATHROW, UK (EGLL)

Température: 11.0 Celsius

Point de rosée: 9.0 Celsius

Humidité relative: 87%

Vents: Nord-est à 6 km/h ou 3 noeuds.

Pression au niveau moyen de la mer: 103.00 kilopascals.

Visibilité horizontale: 6.21 milles terrestres ou 9.94 kilomètres.

Observation METAR:

EGLL 200120Z AUTO 06003KT 9999 NCD 11/09 Q1030=